Time;durP1;ratioP1;P1;durP2;ratioP2;P2;SDS_P1;SDS_P2;PMS_P1;PMS_P2;Temp;Humidity;BMP_temperature;BMP_pressure;BME280_temperature;BME280_humidity;BME280_pressure;Samples;Min_cycle;Max_cycle;Signal;HPM_P1;HPM_P2
2021/06/17 00:00:18;;;;;;;5.93;4.47;;;563.20;2432.00;;;;;;4892016;29;20049;-71
2021/06/17 00:02:45;;;;;;;9.70;4.18;;;538.50;2406.40;;;;;;4882924;29;20069;-71
2021/06/17 00:05:15;;;;;;;5.57;4.20;;;538.50;2406.40;;;;;;4892150;29;20037;-72
2021/06/17 00:07:41;;;;;;;8.45;4.03;;;563.20;2432.00;;;;;;4893356;29;20031;-71
2021/06/17 00:10:28;;;;;;;5.47;4.20;;;563.20;2406.40;;;;;;4890067;29;20029;-71
2021/06/17 00:12:56;;;;;;;8.35;5.22;;;563.20;2432.00;;;;;;4894429;29;20037;-71
2021/06/17 00:15:24;;;;;;;6.78;4.60;;;538.50;2406.40;;;;;;4888716;29;20043;-71
2021/06/17 00:17:50;;;;;;;8.27;4.50;;;563.20;2432.00;;;;;;4878700;29;20036;-71
2021/06/17 00:20:21;;;;;;;5.05;3.83;;;538.40;2406.40;;;;;;4875020;29;20128;-72
2021/06/17 00:22:47;;;;;;;7.00;4.43;;;538.40;2406.40;;;;;;4894169;29;20067;-72
2021/06/17 00:25:14;;;;;;;10.68;4.72;;;538.30;2406.40;;;;;;4891426;29;20032;-71
2021/06/17 00:27:40;;;;;;;10.15;5.25;;;538.20;2406.40;;;;;;4888984;29;20100;-71
2021/06/17 00:30:07;;;;;;;9.57;4.95;;;538.20;2406.40;;;;;;4892501;29;20137;-71
2021/06/17 00:32:33;;;;;;;6.65;4.47;;;538.20;2406.40;;;;;;4892773;29;20371;-71
2021/06/17 00:34:58;;;;;;;9.25;5.28;;;538.10;2406.40;;;;;;4890353;29;20025;-71
2021/06/17 00:37:24;;;;;;;7.22;4.45;;;538.00;2406.40;;;;;;4875487;29;20085;-71
2021/06/17 00:39:50;;;;;;;6.53;4.25;;;537.90;2406.40;;;;;;4891891;29;20024;-71
2021/06/17 00:42:17;;;;;;;6.07;4.35;;;537.90;2406.40;;;;;;4876148;29;20033;-71
2021/06/17 00:45:10;;;;;;;5.50;3.53;;;537.90;2406.40;;;;;;4886901;29;20025;-71
2021/06/17 00:47:36;;;;;;;7.13;4.32;;;537.80;2406.40;;;;;;4890906;29;20111;-71
2021/06/17 00:50:06;;;;;;;7.45;5.00;;;537.80;2406.40;;;;;;4894314;29;20017;-71
2021/06/17 00:52:34;;;;;;;7.63;4.35;;;537.80;2406.40;;;;;;4878596;29;20029;-71
2021/06/17 00:55:01;;;;;;;6.03;4.40;;;537.80;2406.40;;;;;;4891598;29;20029;-71
2021/06/17 00:57:27;;;;;;;7.97;5.35;;;537.70;2406.40;;;;;;4873591;29;20032;-71
2021/06/17 00:59:53;;;;;;;5.80;4.20;;;537.70;2406.40;;;;;;4891480;29;20048;-71
2021/06/17 01:02:19;;;;;;;6.95;4.65;;;537.80;2406.40;;;;;;4873173;29;20033;-71
2021/06/17 01:04:45;;;;;;;7.22;4.20;;;537.80;2406.40;;;;;;4894819;29;20108;-71
2021/06/17 01:07:20;;;;;;;7.13;4.15;;;537.80;2406.40;;;;;;4876748;29;20075;-71
2021/06/17 01:09:52;;;;;;;5.97;4.18;;;537.70;2406.40;;;;;;4890409;29;20043;-70
2021/06/17 01:12:32;;;;;;;5.38;3.92;;;537.70;2406.40;;;;;;4892523;29;20108;-71
2021/06/17 01:15:06;;;;;;;8.52;4.80;;;537.80;2406.40;;;;;;4885935;29;20029;-71
2021/06/17 01:17:37;;;;;;;8.85;4.65;;;537.70;2406.40;;;;;;4893194;29;20103;-71
2021/06/17 01:20:09;;;;;;;10.70;5.10;;;537.80;2406.40;;;;;;4885946;29;20120;-72
2021/06/17 01:22:56;;;;;;;11.75;4.88;;;537.60;2406.40;;;;;;4892077;29;20032;-71
2021/06/17 01:25:46;;;;;;;9.32;5.63;;;537.60;2406.40;;;;;;4883177;29;20115;-72
2021/06/17 01:28:17;;;;;;;6.53;4.95;;;512.90;2380.80;;;;;;4886222;29;20025;-71
2021/06/17 01:31:02;;;;;;;8.30;5.15;;;512.80;2380.80;;;;;;4895052;29;20034;-71
2021/06/17 01:33:35;;;;;;;11.30;5.78;;;512.60;2380.80;;;;;;4878410;29;20044;-71
2021/06/17 01:36:10;;;;;;;7.82;5.35;;;512.70;2380.80;;;;;;4896477;29;20157;-72
2021/06/17 01:38:37;;;;;;;7.60;5.03;;;512.80;2380.80;;;;;;4878818;29;20104;-71
2021/06/17 01:41:04;;;;;;;7.55;5.15;;;512.80;2380.80;;;;;;4879982;29;21370;-71
2021/06/17 01:43:30;;;;;;;9.93;5.72;;;512.80;2380.80;;;;;;4904280;29;20458;-71
2021/06/17 01:46:01;;;;;;;7.05;5.43;;;512.60;2380.80;;;;;;4879401;29;20048;-71
2021/06/17 01:48:31;;;;;;;8.70;5.22;;;512.50;2380.80;;;;;;4879351;29;20025;-71
2021/06/17 01:50:57;;;;;;;5.45;4.15;;;512.50;2380.80;;;;;;4902677;29;20035;-71
2021/06/17 01:53:24;;;;;;;16.40;5.75;;;512.50;2380.80;;;;;;4902922;29;20020;-71
2021/06/17 01:55:55;;;;;;;10.18;5.90;;;512.50;2380.80;;;;;;4895893;29;20028;-71
2021/06/17 01:58:22;;;;;;;11.40;6.75;;;512.30;2380.80;;;;;;4894910;29;20092;-71
2021/06/17 02:00:49;;;;;;;16.02;6.65;;;512.30;2380.80;;;;;;4898272;29;20127;-71
2021/06/17 02:03:16;;;;;;;12.18;6.55;;;512.20;2380.80;;;;;;4894875;29;20032;-71
2021/06/17 02:05:43;;;;;;;10.90;7.30;;;512.30;2380.80;;;;;;4910440;29;20034;-70
2021/06/17 02:08:09;;;;;;;9.70;6.38;;;512.30;2380.80;;;;;;4903574;29;20061;-71
2021/06/17 02:10:38;;;;;;;11.60;7.20;;;512.30;2380.80;;;;;;4895504;29;20032;-72
2021/06/17 02:13:06;;;;;;;11.00;7.55;;;512.30;2380.80;;;;;;4896280;29;20063;-71
2021/06/17 02:15:33;;;;;;;9.40;6.93;;;512.30;2380.80;;;;;;4878934;29;20134;-71
2021/06/17 02:18:00;;;;;;;12.00;7.03;;;512.30;2380.80;;;;;;4899274;29;20047;-71
2021/06/17 02:20:26;;;;;;;14.10;7.15;;;512.20;2380.80;;;;;;4896162;29;20038;-71
2021/06/17 02:23:01;;;;;;;11.95;7.28;;;512.10;2380.80;;;;;;4878743;29;20028;-71
2021/06/17 02:25:28;;;;;;;10.90;7.05;;;512.00;2380.80;;;;;;4896338;29;20021;-71
2021/06/17 02:28:00;;;;;;;12.95;7.13;;;512.10;2380.80;;;;;;4900842;29;20028;-71
2021/06/17 02:30:33;;;;;;;14.68;7.32;;;512.20;2380.80;;;;;;4894754;29;20405;-71
2021/06/17 02:33:03;;;;;;;11.73;6.78;;;512.10;2380.80;;;;;;4879173;29;20076;-71
2021/06/17 02:35:31;;;;;;;10.25;6.65;;;512.00;2380.80;;;;;;4878936;29;20056;-72
2021/06/17 02:38:04;;;;;;;7.72;6.72;;;512.20;2380.80;;;;;;4903633;29;20036;-72
2021/06/17 02:40:33;;;;;;;10.52;6.72;;;512.20;2380.80;;;;;;4878568;29;20024;-71
2021/06/17 02:43:00;;;;;;;11.45;7.20;;;512.20;2380.80;;;;;;4895792;29;20770;-71
2021/06/17 02:45:31;;;;;;;9.85;6.68;;;512.00;2380.80;;;;;;4891047;29;20071;-71
2021/06/17 02:47:57;;;;;;;10.77;6.95;;;512.00;2380.80;;;;;;4886584;29;20095;-71
2021/06/17 02:50:24;;;;;;;9.57;6.63;;;512.00;2380.80;;;;;;4895697;29;20108;-71
2021/06/17 02:52:50;;;;;;;14.88;7.50;;;487.30;2380.80;;;;;;4894535;29;20028;-71
2021/06/17 02:55:17;;;;;;;11.73;6.78;;;512.00;2380.80;;;;;;4888730;29;20391;-71
2021/06/17 02:57:55;;;;;;;10.38;7.40;;;512.00;2380.80;;;;;;4894883;29;20024;-71
2021/06/17 03:00:27;;;;;;;10.98;7.45;;;512.00;2380.80;;;;;;4899424;29;20044;-71
2021/06/17 03:03:17;;;;;;;9.07;7.15;;;512.00;2380.80;;;;;;4882653;29;20029;-71
2021/06/17 03:06:03;;;;;;;11.45;7.88;;;512.00;2380.80;;;;;;4894825;29;20028;-72
2021/06/17 03:08:40;;;;;;;10.30;6.15;;;487.30;2380.80;;;;;;4900545;29;20017;-71
2021/06/17 03:11:11;;;;;;;13.02;7.78;;;512.00;2380.80;;;;;;4899151;29;20493;-72
2021/06/17 03:13:42;;;;;;;12.18;8.05;;;487.20;2380.80;;;;;;4898801;29;20080;-71
2021/06/17 03:16:12;;;;;;;12.18;7.45;;;487.20;2380.80;;;;;;4898788;29;20040;-71
2021/06/17 03:18:40;;;;;;;11.00;7.40;;;487.10;2380.80;;;;;;4900479;29;20029;-72
2021/06/17 03:21:07;;;;;;;10.05;6.47;;;487.10;2380.80;;;;;;4899609;29;20128;-71
2021/06/17 03:23:34;;;;;;;11.90;7.38;;;487.10;2380.80;;;;;;4880492;29;20036;-71
2021/06/17 03:26:04;;;;;;;11.98;8.23;;;487.10;2380.80;;;;;;4894003;29;20033;-71
2021/06/17 03:28:35;;;;;;;13.50;6.85;;;487.20;2380.80;;;;;;4897154;29;20027;-71
2021/06/17 03:31:02;;;;;;;14.65;7.40;;;512.00;2380.80;;;;;;4897476;29;20037;-72
2021/06/17 03:33:33;;;;;;;14.32;8.00;;;487.30;2380.80;;;;;;4897578;29;20016;-72
2021/06/17 03:36:01;;;;;;;12.43;7.50;;;512.00;2380.80;;;;;;4898873;29;20021;-72
2021/06/17 03:38:28;;;;;;;13.05;7.25;;;512.20;2380.80;;;;;;4881573;29;20065;-72
2021/06/17 03:40:56;;;;;;;10.02;6.80;;;512.30;2380.80;;;;;;4898885;29;20035;-72
2021/06/17 03:43:23;;;;;;;13.63;7.47;;;512.40;2380.80;;;;;;4906801;29;20028;-72
2021/06/17 03:45:50;;;;;;;11.85;7.47;;;512.50;2380.80;;;;;;4898178;29;20025;-72
2021/06/17 03:48:17;;;;;;;10.80;7.97;;;512.50;2380.80;;;;;;4897794;29;20024;-72
2021/06/17 03:50:44;;;;;;;11.15;7.07;;;512.40;2380.80;;;;;;4898809;29;20012;-72
2021/06/17 03:53:13;;;;;;;14.13;7.93;;;512.50;2380.80;;;;;;4898488;29;20104;-71
2021/06/17 03:55:42;;;;;;;11.63;8.50;;;512.80;2380.80;;;;;;4898157;29;20103;-72
2021/06/17 03:58:09;;;;;;;12.60;8.02;;;512.80;2380.80;;;;;;4897477;29;20512;-72
2021/06/17 04:00:35;;;;;;;11.23;8.25;;;512.80;2380.80;;;;;;4882932;29;20507;-72
2021/06/17 04:03:06;;;;;;;13.40;7.93;;;512.80;2380.80;;;;;;4898160;29;20039;-72
2021/06/17 04:05:33;;;;;;;12.30;7.75;;;512.90;2380.80;;;;;;4897034;29;20497;-72
2021/06/17 04:08:01;;;;;;;12.27;7.70;;;537.80;2406.40;;;;;;4881718;29;20033;-72
2021/06/17 04:10:28;;;;;;;12.63;8.65;;;537.90;2406.40;;;;;;4896271;29;20027;-72
2021/06/17 04:12:56;;;;;;;12.35;8.85;;;537.90;2406.40;;;;;;4890951;29;20021;-73
2021/06/17 04:15:42;;;;;;;13.68;9.13;;;538.10;2406.40;;;;;;4872335;29;20635;-71
2021/06/17 04:18:09;;;;;;;19.55;8.60;;;538.20;2406.40;;;;;;4892748;29;20538;-74
2021/06/17 04:20:43;;;;;;;10.43;8.13;;;538.40;2406.40;;;;;;4893915;29;20448;-74
2021/06/17 04:23:09;;;;;;;13.40;8.10;;;538.50;2406.40;;;;;;4893587;29;20029;-74
2021/06/17 04:25:39;;;;;;;9.45;6.82;;;563.30;2432.00;;;;;;4878194;29;20092;-74
2021/06/17 04:28:05;;;;;;;12.02;6.45;;;563.40;2432.00;;;;;;4890469;29;20068;-69
2021/06/17 04:30:33;;;;;;;8.27;5.43;;;563.50;2432.00;;;;;;4894292;29;20828;-71
2021/06/17 04:33:04;;;;;;;9.55;5.47;;;563.60;2432.00;;;;;;4897485;29;20076;-71
2021/06/17 04:35:32;;;;;;;11.25;6.35;;;563.70;2406.40;;;;;;4891155;29;20025;-71
2021/06/17 04:37:59;;;;;;;41.08;8.80;;;563.70;2406.40;;;;;;4893611;29;20039;-71
2021/06/17 04:40:26;;;;;;;8.30;5.20;;;563.90;2406.40;;;;;;4878076;29;20033;-71
2021/06/17 04:42:57;;;;;;;8.02;5.35;;;564.10;2380.80;;;;;;4896145;29;20457;-71
2021/06/17 04:45:25;;;;;;;7.18;5.13;;;564.10;2380.80;;;;;;4891848;29;20027;-72
2021/06/17 04:47:52;;;;;;;12.77;5.63;;;588.80;2380.80;;;;;;4895511;29;20024;-72
2021/06/17 04:50:30;;;;;;;11.27;5.90;;;588.80;2380.80;;;;;;4895689;29;20040;-71
2021/06/17 04:52:56;;;;;;;12.02;6.15;;;588.90;2380.80;;;;;;4892493;29;20037;-71
2021/06/17 04:55:22;;;;;;;7.47;5.20;;;589.10;2355.20;;;;;;4895611;29;20076;-71
2021/06/17 04:57:48;;;;;;;8.80;5.68;;;589.20;2355.20;;;;;;4897042;29;20032;-72
2021/06/17 05:00:14;;;;;;;10.80;6.20;;;589.50;2329.60;;;;;;4896159;29;20112;-71
2021/06/17 05:02:40;;;;;;;5.90;4.82;;;589.60;2329.60;;;;;;4896549;29;20043;-71
2021/06/17 05:05:08;;;;;;;13.30;6.40;;;589.70;2304.00;;;;;;4896336;29;20033;-71
2021/06/17 05:12:46;;;;;;;7.05;5.13;;;614.80;2278.40;;;;;;4895134;29;20416;-72
2021/06/17 05:15:12;;;;;;;9.23;6.70;;;614.90;2278.40;;;;;;4896835;29;20490;-71
2021/06/17 05:17:38;;;;;;;8.25;5.47;;;615.00;2252.80;;;;;;4892285;29;20063;-71
2021/06/17 05:20:07;;;;;;;12.27;6.10;;;615.20;2252.80;;;;;;4888939;29;20076;-71
2021/06/17 05:22:37;;;;;;;6.20;4.95;;;615.30;2252.80;;;;;;4895889;29;20031;-72
2021/06/17 05:25:06;;;;;;;7.90;5.50;;;615.30;2252.80;;;;;;4892536;29;20044;-71
2021/06/17 05:27:37;;;;;;;9.63;5.60;;;640.20;2227.20;;;;;;4892527;29;20167;-71
2021/06/17 05:30:05;;;;;;;12.35;5.55;;;640.50;2201.60;;;;;;4894914;29;20501;-72
2021/06/17 05:32:31;;;;;;;10.35;6.25;;;640.60;2201.60;;;;;;4896567;29;20048;-72
2021/06/17 05:34:57;;;;;;;8.82;5.22;;;640.70;2201.60;;;;;;4872437;29;20394;-71
2021/06/17 05:37:22;;;;;;;10.23;6.00;;;640.90;2176.00;;;;;;4887711;29;20095;-71
2021/06/17 05:39:48;;;;;;;8.32;5.43;;;665.80;2176.00;;;;;;4893600;29;20119;-72
2021/06/17 05:42:14;;;;;;;8.57;5.60;;;666.00;2150.40;;;;;;4894653;29;20046;-73
2021/06/17 05:44:39;;;;;;;6.15;5.13;;;666.30;2124.80;;;;;;4891573;29;20599;-72
2021/06/17 05:47:05;;;;;;;6.70;5.82;;;666.50;2124.80;;;;;;4888646;29;20032;-72
2021/06/17 05:49:31;;;;;;;9.90;5.10;;;691.40;2099.20;;;;;;4895642;29;20646;-72
2021/06/17 05:51:56;;;;;;;8.07;5.15;;;691.70;2073.60;;;;;;4891885;29;20477;-72
2021/06/17 05:54:23;;;;;;;8.50;5.03;;;691.80;2048.00;;;;;;4895575;29;20028;-72
2021/06/17 05:56:49;;;;;;;11.00;7.90;;;691.90;2022.40;;;;;;4891806;29;20117;-73
2021/06/17 05:59:17;;;;;;;10.07;7.72;;;692.10;1996.80;;;;;;4890663;29;20156;-72
2021/06/17 06:01:46;;;;;;;17.02;12.75;;;716.80;2022.40;;;;;;4887592;29;20028;-72
2021/06/17 06:04:12;;;;;;;14.70;13.13;;;716.90;1996.80;;;;;;4896103;29;20025;-72
2021/06/17 06:06:38;;;;;;;22.80;11.68;;;717.30;1971.20;;;;;;4883262;29;20032;-72
2021/06/17 06:09:06;;;;;;;10.88;9.05;;;717.60;1945.60;;;;;;4890895;29;20033;-72
2021/06/17 06:11:32;;;;;;;14.18;8.45;;;742.40;1971.20;;;;;;4890697;29;20469;-71
2021/06/17 06:14:01;;;;;;;12.52;8.35;;;742.60;1945.60;;;;;;4888642;29;20032;-71
2021/06/17 06:16:28;;;;;;;13.68;8.70;;;742.90;1920.00;;;;;;4894076;29;20076;-72
2021/06/17 06:18:54;;;;;;;12.90;7.97;;;743.10;1894.40;;;;;;4894111;29;20028;-72
2021/06/17 06:21:20;;;;;;;10.05;7.63;;;743.20;1894.40;;;;;;4876603;29;20089;-71
2021/06/17 06:23:46;;;;;;;14.57;7.78;;;743.10;1868.80;;;;;;4890948;29;20382;-72
2021/06/17 06:26:12;;;;;;;17.00;6.93;;;743.20;1868.80;;;;;;4886453;29;20028;-72
2021/06/17 06:28:38;;;;;;;10.50;7.40;;;743.20;1843.20;;;;;;4887025;29;20035;-71
2021/06/17 06:31:03;;;;;;;11.90;6.82;;;768.00;1843.20;;;;;;4887813;29;20068;-72
2021/06/17 06:33:29;;;;;;;14.48;7.20;;;768.20;1817.60;;;;;;4883495;29;20017;-72
2021/06/17 06:35:55;;;;;;;8.77;4.78;;;768.30;1817.60;;;;;;4874710;29;20074;-73
2021/06/17 06:38:21;;;;;;;8.57;4.43;;;768.40;1817.60;;;;;;4891760;29;20394;-72
2021/06/17 06:40:46;;;;;;;6.75;4.25;;;768.50;1792.00;;;;;;4889444;29;20029;-72
2021/06/17 06:43:17;;;;;;;6.45;4.72;;;768.90;1792.00;;;;;;4893803;29;20487;-72
2021/06/17 06:45:42;;;;;;;10.52;4.53;;;794.00;1766.40;;;;;;4887836;29;20040;-72
2021/06/17 06:48:09;;;;;;;6.63;3.63;;;794.00;1766.40;;;;;;4894596;29;20021;-72
2021/06/17 06:50:35;;;;;;;6.07;3.90;;;794.30;1715.20;;;;;;4889681;29;20018;-72
2021/06/17 06:53:01;;;;;;;4.65;3.58;;;819.20;1638.40;;;;;;4890208;29;20044;-72
2021/06/17 06:55:27;;;;;;;6.97;3.85;;;819.60;1664.00;;;;;;4882709;29;20029;-72
2021/06/17 06:57:55;;;;;;;5.38;3.50;;;819.70;1638.40;;;;;;4894410;29;20156;-72
2021/06/17 07:00:24;;;;;;;5.43;4.25;;;819.70;1612.80;;;;;;4893581;29;20080;-72
2021/06/17 07:02:50;;;;;;;6.85;4.90;;;819.70;1612.80;;;;;;4894435;29;20025;-72
2021/06/17 07:05:16;;;;;;;5.30;4.00;;;819.70;1612.80;;;;;;4893895;29;20044;-72
2021/06/17 07:07:42;;;;;;;8.95;4.00;;;819.50;1612.80;;;;;;4893601;29;20104;-72
2021/06/17 07:10:17;;;;;;;3.90;3.05;;;819.60;1612.80;;;;;;4894131;29;20161;-72
2021/06/17 07:12:43;;;;;;;6.95;4.15;;;819.40;1587.20;;;;;;4886795;29;20111;-72
2021/06/17 07:15:09;;;;;;;5.10;4.03;;;819.80;1561.60;;;;;;4892845;29;20552;-72
2021/06/17 07:17:38;;;;;;;5.32;3.80;;;819.90;1536.00;;;;;;4890462;29;20482;-72
2021/06/17 07:20:06;;;;;;;6.07;3.95;;;845.00;1561.60;;;;;;4891345;29;20052;-72
2021/06/17 07:22:31;;;;;;;4.60;3.50;;;844.80;1536.00;;;;;;4876913;29;20037;-72
2021/06/17 07:24:58;;;;;;;8.77;4.57;;;845.40;1484.80;;;;;;4894725;29;20043;-72
2021/06/17 07:27:23;;;;;;;8.32;4.70;;;845.50;1484.80;;;;;;4893815;29;20533;-72
2021/06/17 07:29:52;;;;;;;10.38;4.47;;;845.60;1510.40;;;;;;4885599;29;20062;-72
2021/06/17 07:32:19;;;;;;;4.35;3.88;;;845.40;1484.80;;;;;;4893115;29;20028;-72
2021/06/17 07:34:46;;;;;;;6.68;3.97;;;870.40;1459.20;;;;;;4891253;29;20072;-73
2021/06/17 07:37:13;;;;;;;6.13;3.58;;;845.60;1459.20;;;;;;4888017;29;20024;-73
2021/06/17 07:39:38;;;;;;;6.15;3.42;;;870.40;1433.60;;;;;;4883143;29;20482;-73
2021/06/17 07:42:09;;;;;;;5.97;3.80;;;870.70;1433.60;;;;;;4888817;29;20040;-73
2021/06/17 07:44:38;;;;;;;4.38;3.25;;;870.40;1433.60;;;;;;4892371;29;20020;-72
2021/06/17 07:47:04;;;;;;;10.55;3.65;;;870.60;1408.00;;;;;;4879350;29;20091;-72
2021/06/17 07:49:30;;;;;;;5.47;4.22;;;871.10;1356.80;;;;;;4878435;29;20184;-72
2021/06/17 07:51:55;;;;;;;5.32;3.90;;;870.90;1408.00;;;;;;4879112;29;20812;-72
2021/06/17 07:54:21;;;;;;;6.53;3.92;;;870.60;1382.40;;;;;;4885070;29;20016;-72
2021/06/17 07:56:48;;;;;;;6.95;3.33;;;870.90;1356.80;;;;;;4894219;29;20061;-72
2021/06/17 07:59:18;;;;;;;4.88;2.85;;;871.30;1331.20;;;;;;4888293;29;20048;-72
2021/06/17 08:01:44;;;;;;;4.05;3.58;;;896.00;1305.60;;;;;;4876137;29;20394;-72
2021/06/17 08:04:10;;;;;;;5.82;3.58;;;871.30;1331.20;;;;;;4877482;29;20055;-73
2021/06/17 08:06:36;;;;;;;4.28;3.40;;;871.30;1356.80;;;;;;4887416;29;20414;-73
2021/06/17 08:09:03;;;;;;;4.85;3.05;;;870.70;1356.80;;;;;;4878428;29;20048;-73
2021/06/17 08:11:29;;;;;;;6.63;3.42;;;896.00;1305.60;;;;;;4891445;29;20443;-73
2021/06/17 08:14:04;;;;;;;5.80;3.63;;;896.30;1305.60;;;;;;4869605;29;20029;-73
2021/06/17 08:16:30;;;;;;;6.13;3.42;;;896.40;1280.00;;;;;;4890954;29;20029;-73
2021/06/17 08:18:59;;;;;;;5.38;3.22;;;896.40;1280.00;;;;;;4891509;29;20108;-72
2021/06/17 08:21:26;;;;;;;6.75;3.10;;;896.80;1254.40;;;;;;4888518;29;21066;-73
2021/06/17 08:23:55;;;;;;;5.30;3.38;;;921.60;1254.40;;;;;;4893631;29;20036;-73
2021/06/17 08:26:21;;;;;;;7.80;3.20;;;896.50;1254.40;;;;;;4894550;29;20115;-73
2021/06/17 08:28:47;;;;;;;4.10;3.30;;;896.50;1228.80;;;;;;4886512;29;20053;-74
2021/06/17 08:31:12;;;;;;;3.95;2.78;;;896.50;1228.80;;;;;;4881116;29;20785;-73
2021/06/17 08:33:38;;;;;;;5.60;3.53;;;896.50;1203.20;;;;;;4896294;29;20080;-73
2021/06/17 08:36:07;;;;;;;4.57;3.90;;;896.50;1228.80;;;;;;4879779;29;20478;-73
2021/06/17 08:38:36;;;;;;;4.93;3.90;;;896.80;1203.20;;;;;;4893555;29;20025;-71
2021/06/17 08:41:03;;;;;;;4.15;2.75;;;922.00;1228.80;;;;;;4883147;29;20041;-71
2021/06/17 08:43:30;;;;;;;3.92;3.08;;;921.80;1203.20;;;;;;4883527;29;20036;-71
2021/06/17 08:45:56;;;;;;;6.45;3.08;;;922.10;1177.60;;;;;;4884859;29;20061;-73
2021/06/17 08:48:22;;;;;;;4.82;2.80;;;922.10;1177.60;;;;;;4884129;29;20021;-73
2021/06/17 08:50:48;;;;;;;3.92;2.67;;;922.30;1152.00;;;;;;4891788;29;20073;-74
2021/06/17 08:53:14;;;;;;;5.72;3.30;;;947.20;1152.00;;;;;;4868314;29;20116;-73
2021/06/17 08:55:40;;;;;;;6.63;3.00;;;922.20;1152.00;;;;;;4881751;29;20037;-73
2021/06/17 08:58:06;;;;;;;5.22;3.30;;;947.20;1126.40;;;;;;4886883;29;20028;-73
2021/06/17 09:00:35;;;;;;;3.47;2.88;;;947.20;1126.40;;;;;;4874195;29;20522;-73
2021/06/17 09:03:18;;;;;;;9.93;6.95;;;947.20;1126.40;;;;;;4891101;29;20092;-72
2021/06/17 09:05:49;;;;;;;3.92;3.30;;;948.00;1100.80;;;;;;4891703;29;20417;-73
2021/06/17 09:08:30;;;;;;;7.43;3.67;;;947.20;1126.40;;;;;;4893889;29;20021;-72
2021/06/17 09:10:56;;;;;;;4.97;3.72;;;947.40;1100.80;;;;;;4872498;29;20033;-72
2021/06/17 09:13:28;;;;;;;6.82;3.88;;;947.90;1049.60;;;;;;4893334;29;20024;-73
2021/06/17 09:15:55;;;;;;;6.63;3.53;;;947.50;1075.20;;;;;;4890398;29;20088;-72
2021/06/17 09:18:32;;;;;;;6.22;4.28;;;922.30;1100.80;;;;;;4889763;29;20075;-72
2021/06/17 09:21:04;;;;;;;4.05;2.75;;;922.30;1100.80;;;;;;4877900;29;20037;-72
2021/06/17 09:23:39;;;;;;;3.55;2.30;;;922.10;1075.20;;;;;;4892159;29;20056;-72
2021/06/17 09:26:29;;;;;;;4.60;2.42;;;922.10;1024.00;;;;;;4889602;29;20032;-73
2021/06/17 09:29:03;;;;;;;5.72;3.20;;;947.50;998.40;;;;;;4890183;29;20115;-72
2021/06/17 09:31:41;;;;;;;6.85;3.50;;;922.10;1049.60;;;;;;4878311;29;20028;-72
2021/06/17 09:34:08;;;;;;;3.70;2.38;;;921.60;1075.20;;;;;;4874897;29;20405;-72
2021/06/17 09:36:35;;;;;;;4.43;3.08;;;896.70;1049.60;;;;;;4891696;29;20031;-72
2021/06/17 09:39:10;;;;;;;5.97;2.75;;;922.40;1075.20;;;;;;4892468;29;20057;-72
2021/06/17 09:41:39;;;;;;;;;;;947.30;1049.60;;;;;;4894590;29;20469;-73
2021/06/17 09:44:30;;;;;;;4.57;2.70;;;947.80;1049.60;;;;;;4886441;29;19911;-73
2021/06/17 09:47:21;;;;;;;9.95;3.30;;;947.80;1024.00;;;;;;4876123;29;20033;-72
2021/06/17 09:49:57;;;;;;;4.38;3.20;;;972.90;1024.00;;;;;;4890017;29;20455;-72
2021/06/17 09:52:37;;;;;;;5.20;2.40;;;973.10;1024.00;;;;;;4892996;29;20076;-72
2021/06/17 09:55:03;;;;;;;3.65;2.85;;;973.20;1024.00;;;;;;4885364;29;20147;-73
2021/06/17 09:57:35;;;;;;;5.07;2.65;;;973.30;998.40;;;;;;4891337;29;20040;-73
2021/06/17 10:00:12;;;;;;;3.00;2.40;;;998.40;998.40;;;;;;4892011;29;20072;-73
2021/06/17 10:02:41;;;;;;;6.25;2.88;;;998.60;998.40;;;;;;4890544;29;20027;-73
2021/06/17 10:05:21;;;;;;;4.45;2.53;;;999.20;972.80;;;;;;4890261;29;20033;-73
2021/06/17 10:07:48;;;;;;;3.47;2.40;;;999.10;972.80;;;;;;4893979;29;20030;-73
2021/06/17 10:10:17;;;;;;;2.88;2.13;;;999.00;947.20;;;;;;4894728;29;20072;-73
2021/06/17 10:12:44;;;;;;;3.13;2.60;;;998.80;947.20;;;;;;4874734;29;20064;-72
2021/06/17 10:15:10;;;;;;;7.47;3.25;;;999.10;921.60;;;;;;4881204;29;20725;-72
2021/06/17 10:17:39;;;;;;;3.72;2.30;;;1024.10;947.20;;;;;;4873794;29;20040;-73
2021/06/17 10:20:11;;;;;;;3.65;2.65;;;1024.30;947.20;;;;;;4892269;29;20025;-72
2021/06/17 10:22:41;;;;;;;3.53;2.17;;;1024.60;921.60;;;;;;4890997;29;20065;-72
2021/06/17 10:25:19;;;;;;;5.68;3.05;;;1024.10;947.20;;;;;;4881537;29;20048;-73
2021/06/17 10:27:46;;;;;;;3.35;2.35;;;1024.30;921.60;;;;;;4875948;29;20039;-73
2021/06/17 10:30:13;;;;;;;3.60;2.72;;;1024.30;921.60;;;;;;4891608;29;20043;-73
2021/06/17 10:32:46;;;;;;;3.45;2.35;;;1024.60;947.20;;;;;;4892078;29;20697;-73
2021/06/17 10:35:28;;;;;;;4.80;2.75;;;1024.70;921.60;;;;;;4890611;29;20111;-73
2021/06/17 10:37:58;;;;;;;4.65;2.83;;;1049.90;947.20;;;;;;4892114;29;20407;-73
2021/06/17 10:40:48;;;;;;;3.63;2.63;;;1050.50;921.60;;;;;;4884139;29;20108;-73
2021/06/17 10:43:19;;;;;;;4.60;2.50;;;1049.90;921.60;;;;;;4876639;29;20028;-73
2021/06/17 10:45:47;;;;;;;3.53;2.40;;;1024.20;947.20;;;;;;4889890;29;20044;-73
2021/06/17 10:48:14;;;;;;;4.95;3.05;;;1024.70;921.60;;;;;;4890609;29;20403;-73
2021/06/17 10:50:48;;;;;;;4.05;2.72;;;1024.60;921.60;;;;;;4886279;29;20372;-73
2021/06/17 10:53:18;;;;;;;5.32;2.78;;;1024.70;921.60;;;;;;4892821;29;20477;-73
2021/06/17 10:56:04;;;;;;;5.25;3.20;;;1050.10;947.20;;;;;;4888954;29;20043;-73
2021/06/17 10:58:53;;;;;;;;;;;1050.40;921.60;;;;;;4894046;29;20016;-72
2021/06/17 11:01:25;;;;;;;7.82;3.67;;;1075.40;921.60;;;;;;4885416;29;19930;-73
2021/06/17 11:04:02;;;;;;;4.20;3.00;;;1024.70;896.00;;;;;;4891471;29;20032;-73
2021/06/17 11:06:56;;;;;;;3.03;2.30;;;1024.10;896.00;;;;;;4889382;29;20119;-73
2021/06/17 11:09:35;;;;;;;8.35;2.47;;;1024.30;921.60;;;;;;4886145;29;20014;-74
2021/06/17 11:12:02;;;;;;;5.20;2.75;;;1050.50;896.00;;;;;;4889126;29;20032;-73
2021/06/17 11:14:48;;;;;;;5.47;2.60;;;1075.70;896.00;;;;;;4893884;29;20055;-73
2021/06/17 11:17:29;;;;;;;4.50;2.63;;;1050.40;896.00;;;;;;4888930;29;20565;-73
2021/06/17 11:20:08;;;;;;;3.90;2.60;;;1075.70;870.40;;;;;;4892621;29;20040;-73
2021/06/17 11:22:48;;;;;;;3.95;2.65;;;1076.10;844.80;;;;;;4884328;29;20032;-74
2021/06/17 11:25:17;;;;;;;5.35;2.55;;;1050.30;896.00;;;;;;4895229;29;20029;-72
2021/06/17 11:28:01;;;;;;;4.10;2.50;;;1075.20;896.00;;;;;;4890581;29;20028;-72
2021/06/17 11:30:39;;;;;;;4.57;2.78;;;1076.00;870.40;;;;;;4892894;29;20043;-72
2021/06/17 11:33:20;;;;;;;3.80;2.50;;;1050.10;896.00;;;;;;4892988;29;20017;-72
2021/06/17 11:35:58;;;;;;;2.80;2.05;;;998.90;947.20;;;;;;4875107;29;20029;-73
2021/06/17 11:38:43;;;;;;;4.68;2.60;;;973.40;921.60;;;;;;4878687;29;20028;-72
2021/06/17 11:41:21;;;;;;;4.07;2.80;;;972.90;947.20;;;;;;4892238;29;20066;-73
2021/06/17 11:44:13;;;;;;;3.28;2.58;;;948.00;947.20;;;;;;4897799;29;20122;-73
2021/06/17 11:46:45;;;;;;;4.07;3.10;;;947.80;947.20;;;;;;4880820;29;20032;-73
2021/06/17 11:49:11;;;;;;;3.85;2.70;;;922.50;972.80;;;;;;4895157;29;20558;-72
2021/06/17 11:51:44;;;;;;;5.03;3.50;;;922.10;972.80;;;;;;4897629;29;20100;-72
2021/06/17 11:54:20;;;;;;;5.95;3.35;;;896.60;998.40;;;;;;4894916;29;20035;-73
2021/06/17 11:56:56;;;;;;;4.25;2.72;;;896.70;998.40;;;;;;4895093;29;20032;-73
2021/06/17 11:59:25;;;;;;;4.45;3.08;;;947.20;972.80;;;;;;4897244;29;20063;-73
2021/06/17 12:02:14;;;;;;;4.32;2.90;;;947.80;947.20;;;;;;4878877;29;20470;-73
2021/06/17 12:05:04;;;;;;;4.63;2.65;;;973.50;947.20;;;;;;4874922;29;20043;-74
2021/06/17 12:07:52;;;;;;;5.30;2.90;;;998.60;921.60;;;;;;4896242;29;20032;-73
2021/06/17 12:10:23;;;;;;;4.68;2.70;;;998.40;947.20;;;;;;4896682;29;20470;-73
2021/06/17 12:13:03;;;;;;;4.07;2.70;;;947.90;921.60;;;;;;4896434;29;20053;-72
2021/06/17 12:15:35;;;;;;;3.00;2.22;;;948.00;921.60;;;;;;4895344;29;20024;-73
2021/06/17 12:18:17;;;;;;;4.50;2.60;;;973.60;896.00;;;;;;4894474;29;20556;-74
2021/06/17 12:20:46;;;;;;;5.03;2.80;;;998.90;921.60;;;;;;4880376;29;20048;-72
2021/06/17 12:23:18;;;;;;;5.25;2.60;;;973.60;896.00;;;;;;4875253;29;20032;-72
2021/06/17 12:25:57;;;;;;;7.93;3.17;;;973.30;921.60;;;;;;4879308;29;20040;-72
2021/06/17 12:28:25;;;;;;;4.68;2.90;;;947.60;972.80;;;;;;4892744;29;20078;-72
2021/06/17 12:30:55;;;;;;;3.67;2.78;;;921.60;1024.00;;;;;;4893656;29;20040;-72
2021/06/17 12:33:31;;;;;;;3.92;2.60;;;896.20;1075.20;;;;;;4889366;29;20025;-72
2021/06/17 12:36:29;;;;;;;5.10;3.10;;;871.00;1177.60;;;;;;4896024;29;20104;-72